Time;durP1;ratioP1;P1;durP2;ratioP2;P2;SDS_P1;SDS_P2;PMS_P1;PMS_P2;Temp;Humidity;BMP_temperature;BMP_pressure;BME280_temperature;BME280_humidity;BME280_pressure;Samples;Min_cycle;Max_cycle;Signal;HPM_P1;HPM_P2
2022/03/13 00:00:45;;;;;;;;;;;;;;;3.51;32.13;98060.53;5066527;28;19990;-90
2022/03/13 00:03:14;;;;;;;;;;;;;;;3.49;31.99;98054.63;5048761;28;19937;-91
2022/03/13 00:05:45;;;;;;;;;;;;;;;3.37;31.74;98054.84;5068533;28;19970;-89
2022/03/13 00:08:18;;;;;;;;;;;;;;;3.32;31.98;98054.03;5069609;28;19931;-90
2022/03/13 00:10:55;;;;;;;;;;;;;;;3.39;32.21;98052.69;5050687;28;19979;-90
2022/03/13 00:13:24;;;;;;;;;;;;;;;3.31;32.25;98055.09;5065712;28;19932;-89
2022/03/13 00:15:55;;;;;;;;;;;;;;;3.26;32.14;98060.44;5069488;28;19939;-90
2022/03/13 00:18:23;;;;;;;;;;;;;;;3.21;32.26;98058.53;5069974;28;19932;-90
2022/03/13 00:20:52;;;;;;;;;;;;;;;2.97;32.32;98060.78;5068557;28;19932;-89
2022/03/13 00:23:20;;;;;;;;;;;;;;;2.83;33.00;98054.25;5068081;28;19928;-90
2022/03/13 00:25:49;;;;;;;;;;;;;;;2.76;32.61;98048.28;5070083;28;19925;-89
2022/03/13 00:28:18;;;;;;;;;;;;;;;3.01;32.39;98048.47;5046718;28;19932;-89
2022/03/13 00:30:46;;;;;;;;;;;;;;;2.66;32.88;98056.25;5068433;28;19925;-90
2022/03/13 00:33:14;;;;;;;;;;;;;;;3.06;32.52;98051.19;5067296;28;19931;-92
2022/03/13 00:35:42;;;;;;;;;;;;;;;3.05;32.44;98062.19;5067465;28;20041;-90
2022/03/13 00:38:15;;;;;;;;;;;;;;;3.13;32.23;98059.00;5068199;28;19951;-90
2022/03/13 00:40:48;;;;;;;;;;;;;;;3.07;32.27;98055.47;5046081;28;19925;-90
2022/03/13 00:43:21;;;;;;;;;;;;;;;3.02;32.62;98062.69;5027820;28;19940;-91
2022/03/13 00:45:49;;;;;;;;;;;;;;;3.05;32.67;98063.00;5066839;28;20007;-88
2022/03/13 00:48:17;;;;;;;;;;;;;;;2.93;32.69;98069.59;5067756;28;19933;-90
2022/03/13 00:50:45;;;;;;;;;;;;;;;2.97;32.68;98050.03;5065597;28;19928;-91
2022/03/13 00:53:15;;;;;;;;;;;;;;;2.97;32.76;98060.78;5048152;28;19995;-92
2022/03/13 00:55:43;;;;;;;;;;;;;;;2.88;32.43;98054.28;5069645;28;19936;-89
2022/03/13 00:58:13;;;;;;;;;;;;;;;2.63;32.86;98066.44;5067571;28;20294;-92
2022/03/13 01:00:41;;;;;;;;;;;;;;;2.53;33.23;98065.53;5061864;28;19925;-92
2022/03/13 01:03:10;;;;;;;;;;;;;;;2.59;32.77;98062.63;5065626;28;20093;-91
2022/03/13 01:05:39;;;;;;;;;;;;;;;2.66;32.43;98064.28;5068331;28;20329;-91
2022/03/13 01:08:07;;;;;;;;;;;;;;;2.53;33.03;98065.53;5068268;28;20334;-89
2022/03/13 01:10:36;;;;;;;;;;;;;;;2.54;32.74;98057.22;5046168;28;20007;-91
2022/03/13 01:13:07;;;;;;;;;;;;;;;2.47;33.16;98061.22;5065315;28;20350;-88
2022/03/13 01:15:38;;;;;;;;;;;;;;;2.57;32.82;98058.63;5066500;28;19948;-89
2022/03/13 01:21:11;;;;;;;;;;;;;;;2.07;33.34;98052.50;5066228;28;19924;-88
2022/03/13 01:23:41;;;;;;;;;;;;;;;2.15;33.26;98050.44;5067779;28;19924;-90
2022/03/13 01:29:24;;;;;;;;;;;;;;;1.91;33.85;98058.78;5104319;27;2068757;-89
2022/03/13 01:31:52;;;;;;;;;;;;;;;1.95;33.44;98049.19;5176076;27;19930;-88
2022/03/13 01:34:42;;;;;;;;;;;;;;;2.01;33.49;98053.53;5167624;27;19927;-91
2022/03/13 01:37:31;;;;;;;;;;;;;;;2.23;32.57;98044.63;5170895;27;19923;-89
2022/03/13 01:40:00;;;;;;;;;;;;;;;2.24;32.42;98040.91;5179143;27;19922;-88
2022/03/13 01:42:28;;;;;;;;;;;;;;;2.05;33.19;98037.75;5154819;27;19931;-90
2022/03/13 01:45:05;;;;;;;;;;;;;;;2.20;32.74;98039.78;5178146;27;19923;-89
2022/03/13 01:47:33;;;;;;;;;;;;;;;2.19;33.18;98038.97;5163414;27;19923;-88
2022/03/13 01:50:01;;;;;;;;;;;;;;;2.05;33.92;98027.84;5175189;27;19967;-89
2022/03/13 01:55:21;;;;;;;;;;;;;;;2.27;33.04;98035.00;5176867;27;19954;-88
2022/03/13 01:57:49;;;;;;;;;;;;;;;2.22;32.79;98030.41;5155362;27;20385;-92
2022/03/13 02:00:20;;;;;;;;;;;;;;;2.32;32.08;98032.38;5173744;27;19952;-85
2022/03/13 02:02:52;;;;;;;;;;;;;;;2.32;32.67;98027.03;5169186;27;20055;-89
2022/03/13 02:05:27;;;;;;;;;;;;;;;2.21;32.19;98026.13;5176843;27;20488;-88
2022/03/13 02:07:56;;;;;;;;;;;;;;;2.15;32.57;98029.00;5179381;27;19927;-88
2022/03/13 02:10:39;;;;;;;;;;;;;;;2.07;32.76;98025.72;5140051;27;19929;-87
2022/03/13 02:13:11;;;;;;;;;;;;;;;2.10;32.73;98025.22;5177924;27;19923;-88
2022/03/13 02:15:40;;;;;;;;;;;;;;;2.05;33.07;98027.84;5170678;27;19957;-88
2022/03/13 02:18:08;;;;;;;;;;;;;;;1.98;32.73;98021.88;5156979;27;19974;-88
2022/03/13 02:20:40;;;;;;;;;;;;;;;1.82;33.57;98030.84;5170838;27;20033;-88
2022/03/13 02:23:16;;;;;;;;;;;;;;;2.05;33.25;98030.53;5156776;27;20153;-89
2022/03/13 02:25:44;;;;;;;;;;;;;;;2.05;32.72;98021.69;5154218;27;19934;-90
2022/03/13 02:28:14;;;;;;;;;;;;;;;1.99;33.35;98011.97;5173740;27;19926;-89
2022/03/13 02:30:47;;;;;;;;;;;;;;;2.06;32.80;98017.94;5150660;27;19927;-87
2022/03/13 02:33:15;;;;;;;;;;;;;;;2.18;32.51;98015.09;5171669;27;19923;-88
2022/03/13 02:35:46;;;;;;;;;;;;;;;1.97;32.76;98017.59;5131050;27;20424;-89
2022/03/13 02:38:14;;;;;;;;;;;;;;;2.00;33.24;98014.41;5174047;27;19999;-89
2022/03/13 02:40:43;;;;;;;;;;;;;;;2.08;32.82;98016.63;5154420;27;19928;-89
2022/03/13 02:43:11;;;;;;;;;;;;;;;2.02;32.87;98017.63;5158182;27;19959;-89
2022/03/13 02:46:04;;;;;;;;;;;;;;;1.91;33.06;98012.41;5158089;27;19975;-90
2022/03/13 02:48:35;;;;;;;;;;;;;;;1.85;33.04;98014.25;5156698;27;19933;-90
2022/03/13 02:51:08;;;;;;;;;;;;;;;1.92;33.19;98012.19;5151885;27;19930;-89
2022/03/13 02:53:40;;;;;;;;;;;;;;;1.88;33.21;98005.72;5159189;27;19938;-89
2022/03/13 02:56:11;;;;;;;;;;;;;;;1.70;33.52;98006.84;5156438;27;19922;-90
2022/03/13 02:58:39;;;;;;;;;;;;;;;1.66;33.98;98010.31;5162074;27;19923;-90
2022/03/13 03:01:10;;;;;;;;;;;;;;;1.73;33.64;98010.91;5141133;27;19923;-90
2022/03/13 03:03:38;;;;;;;;;;;;;;;1.49;34.39;98013.03;5152972;27;19933;-90
2022/03/13 03:06:10;;;;;;;;;;;;;;;1.60;32.99;98008.59;5158065;27;19923;-90
2022/03/13 03:08:38;;;;;;;;;;;;;;;1.46;33.80;98014.34;5165674;27;19923;-86
2022/03/13 03:11:09;;;;;;;;;;;;;;;1.53;33.73;98012.28;5161577;27;19923;-89
2022/03/13 03:13:38;;;;;;;;;;;;;;;1.47;33.98;98010.59;5162398;27;19924;-90
2022/03/13 03:16:10;;;;;;;;;;;;;;;1.64;33.42;98012.41;5162243;27;19992;-88
2022/03/13 03:18:39;;;;;;;;;;;;;;;1.64;33.85;98009.72;5158952;27;20018;-88
2022/03/13 03:21:11;;;;;;;;;;;;;;;1.46;33.86;98014.34;5154680;27;19975;-90
2022/03/13 03:23:39;;;;;;;;;;;;;;;1.45;33.74;98007.38;5164456;27;19923;-87
2022/03/13 03:26:09;;;;;;;;;;;;;;;1.33;34.13;98008.56;5138684;27;19957;-88
2022/03/13 03:28:41;;;;;;;;;;;;;;;1.64;33.87;98017.75;5155570;27;19927;-90
2022/03/13 03:31:09;;;;;;;;;;;;;;;1.51;34.05;98016.28;5139629;27;19971;-91
2022/03/13 03:33:37;;;;;;;;;;;;;;;1.11;34.47;98005.88;5164076;27;20010;-89
2022/03/13 03:36:30;;;;;;;;;;;;;;;1.20;34.52;98015.91;5153068;27;19931;-90
2022/03/13 03:39:00;;;;;;;;;;;;;;;1.09;34.69;98019.50;5156597;27;20536;-91
2022/03/13 03:41:28;;;;;;;;;;;;;;;1.42;34.17;98018.59;5156664;27;19931;-89
2022/03/13 03:43:58;;;;;;;;;;;;;;;1.38;33.87;98020.13;5141144;27;19931;-87
2022/03/13 03:46:26;;;;;;;;;;;;;;;1.22;34.48;98018.31;5156396;27;19931;-90
2022/03/13 03:48:56;;;;;;;;;;;;;;;1.15;34.64;98018.50;5158447;27;20407;-88
2022/03/13 03:51:24;;;;;;;;;;;;;;;1.23;34.58;98019.97;5154420;27;20274;-90
2022/03/13 03:53:53;;;;;;;;;;;;;;;1.28;34.76;98020.03;5162487;27;19986;-89
2022/03/13 03:56:21;;;;;;;;;;;;;;;1.24;34.51;98024.25;5156655;27;19960;-88
2022/03/13 03:58:49;;;;;;;;;;;;;;;1.30;34.63;98023.25;5149272;27;19923;-90
2022/03/13 04:01:19;;;;;;;;;;;;;;;1.20;34.15;98015.91;5156363;27;20015;-89
2022/03/13 04:03:47;;;;;;;;;;;;;;;1.05;35.19;98016.50;5157574;27;19962;-91
2022/03/13 04:06:19;;;;;;;;;;;;;;;0.80;34.69;98021.53;5162216;27;19923;-92
2022/03/13 04:09:12;;;;;;;;;;;;;;;0.94;35.07;98006.72;5159060;27;19927;-88
2022/03/13 04:11:40;;;;;;;;;;;;;;;0.84;34.69;98008.44;5153509;27;19975;-88
2022/03/13 04:14:09;;;;;;;;;;;;;;;0.81;35.33;98012.44;5161816;27;19986;-90
2022/03/13 04:16:53;;;;;;;;;;;;;;;0.96;34.93;98009.13;5152582;27;19952;-91
2022/03/13 04:19:28;;;;;;;;;;;;;;;0.92;35.48;98013.38;5152982;27;19923;-89
2022/03/13 04:21:56;;;;;;;;;;;;;;;0.84;34.78;98011.13;5160351;27;19927;-90
2022/03/13 04:24:24;;;;;;;;;;;;;;;0.87;35.51;98008.78;5154057;27;19922;-90
2022/03/13 04:26:52;;;;;;;;;;;;;;;0.95;35.31;98007.53;5141758;27;20381;-90
2022/03/13 04:29:23;;;;;;;;;;;;;;;1.03;35.31;98005.25;5158509;27;19929;-89
2022/03/13 04:31:55;;;;;;;;;;;;;;;0.81;35.12;98012.44;5152030;27;19929;-90
2022/03/13 04:34:23;;;;;;;;;;;;;;;0.76;36.06;98015.84;5158146;27;20017;-88
2022/03/13 04:36:51;;;;;;;;;;;;;;;0.64;36.49;98025.00;5142713;27;19958;-89
2022/03/13 04:39:19;;;;;;;;;;;;;;;0.54;36.40;98027.53;5159943;27;19969;-87
2022/03/13 04:41:47;;;;;;;;;;;;;;;0.52;36.21;98023.22;5152384;27;19930;-90
2022/03/13 04:44:17;;;;;;;;;;;;;;;0.35;37.01;98030.44;5140326;27;19980;-89
2022/03/13 04:46:54;;;;;;;;;;;;;;;0.89;35.86;98035.25;5134533;27;20144;-88
2022/03/13 04:49:23;;;;;;;;;;;;;;;1.20;34.64;98025.81;5159679;27;20002;-88
2022/03/13 04:51:51;;;;;;;;;;;;;;;1.32;33.91;98029.16;5159656;27;19991;-90
2022/03/13 04:54:27;;;;;;;;;;;;;;;1.25;34.27;98033.91;5155285;27;20029;-89
2022/03/13 04:56:55;;;;;;;;;;;;;;;1.11;34.86;98038.78;5154729;27;19923;-88
2022/03/13 04:59:23;;;;;;;;;;;;;;;1.29;34.47;98046.53;5158730;27;19922;-91
2022/03/13 05:01:53;;;;;;;;;;;;;;;0.74;35.34;98043.88;5159787;27;19923;-88
2022/03/13 05:04:24;;;;;;;;;;;;;;;1.03;35.31;98042.72;5139406;27;19927;-89
2022/03/13 05:06:52;;;;;;;;;;;;;;;0.93;34.52;98039.88;5157929;27;19927;-89
2022/03/13 05:09:20;;;;;;;;;;;;;;;0.84;35.24;98049.38;5158519;27;20800;-90
2022/03/13 05:11:51;;;;;;;;;;;;;;;1.03;34.63;98050.72;5156700;27;19930;-88
2022/03/13 05:14:19;;;;;;;;;;;;;;;0.88;35.04;98053.19;5158049;27;19973;-90
2022/03/13 05:16:47;;;;;;;;;;;;;;;0.98;34.46;98050.66;5157144;27;19972;-90
2022/03/13 05:19:15;;;;;;;;;;;;;;;1.09;33.97;98053.47;5155177;27;19934;-90
2022/03/13 05:21:44;;;;;;;;;;;;;;;0.91;34.37;98060.72;5154773;27;19928;-90
2022/03/13 05:24:12;;;;;;;;;;;;;;;1.03;34.22;98066.78;5140866;27;19931;-90
2022/03/13 05:27:06;;;;;;;;;;;;;;;0.90;34.39;98063.63;5160612;27;19931;-89
2022/03/13 05:29:34;;;;;;;;;;;;;;;0.65;35.26;98056.06;5162116;27;19922;-90
2022/03/13 05:32:03;;;;;;;;;;;;;;;1.01;34.44;98066.22;5149209;27;19980;-88
2022/03/13 05:34:31;;;;;;;;;;;;;;;0.95;34.53;98064.50;5159695;27;20260;-88
2022/03/13 05:37:00;;;;;;;;;;;;;;;0.92;34.75;98073.03;5159600;27;19938;-91
2022/03/13 05:39:30;;;;;;;;;;;;;;;0.99;34.21;98067.50;5138886;27;20410;-91
2022/03/13 05:41:59;;;;;;;;;;;;;;;0.86;34.67;98067.88;5153743;27;20338;-90
2022/03/13 05:44:28;;;;;;;;;;;;;;;1.06;34.13;98076.16;5123672;27;19922;-91
2022/03/13 05:46:56;;;;;;;;;;;;;;;0.91;33.93;98070.63;5159193;27;19923;-91
2022/03/13 05:49:24;;;;;;;;;;;;;;;0.80;34.89;98064.31;5136125;27;19929;-89
2022/03/13 05:51:53;;;;;;;;;;;;;;;0.84;34.23;98067.28;5160464;27;19923;-91
2022/03/13 05:54:23;;;;;;;;;;;;;;;1.00;33.94;98069.94;5139503;27;20333;-88
2022/03/13 05:56:51;;;;;;;;;;;;;;;1.16;34.45;98067.47;5157449;27;19950;-89
2022/03/13 05:59:20;;;;;;;;;;;;;;;1.02;33.86;98075.88;5159560;27;19979;-89
2022/03/13 06:01:49;;;;;;;;;;;;;;;0.78;33.80;98064.53;5127451;27;20372;-88
2022/03/13 06:04:24;;;;;;;;;;;;;;;0.81;34.42;98070.47;5151122;27;19948;-89
2022/03/13 06:06:55;;;;;;;;;;;;;;;1.01;34.27;98076.94;5150615;27;19923;-91
2022/03/13 06:09:25;;;;;;;;;;;;;;;0.87;34.30;98086.34;5147853;27;19923;-88
2022/03/13 06:11:53;;;;;;;;;;;;;;;0.83;34.81;98085.19;5148803;27;20362;-89
2022/03/13 06:14:23;;;;;;;;;;;;;;;1.25;34.09;98085.56;5149579;27;20006;-91
2022/03/13 06:16:51;;;;;;;;;;;;;;;1.04;34.43;98092.47;5151038;27;20026;-86
2022/03/13 06:19:23;;;;;;;;;;;;;;;0.85;34.65;98085.75;5149668;27;19922;-91
2022/03/13 06:21:51;;;;;;;;;;;;;;;1.08;34.45;98087.47;5136823;27;20003;-89
2022/03/13 06:24:22;;;;;;;;;;;;;;;1.11;34.39;98086.94;5151071;27;19929;-89
2022/03/13 06:26:51;;;;;;;;;;;;;;;0.97;34.57;98083.81;5153097;27;19958;-89
2022/03/13 06:29:20;;;;;;;;;;;;;;;0.94;34.58;98086.97;5158546;27;19923;-90
2022/03/13 06:31:52;;;;;;;;;;;;;;;0.95;34.25;98083.25;5151624;27;19962;-91
2022/03/13 06:34:20;;;;;;;;;;;;;;;0.99;33.93;98087.06;5148479;27;19922;-91
2022/03/13 06:36:48;;;;;;;;;;;;;;;0.89;34.66;98094.91;5178949;27;19947;-90
2022/03/13 06:39:19;;;;;;;;;;;;;;;0.94;35.03;98084.31;5168278;27;20487;-90
2022/03/13 06:41:47;;;;;;;;;;;;;;;0.87;34.90;98086.34;5155834;27;19927;-89
2022/03/13 06:44:17;;;;;;;;;;;;;;;0.89;34.90;98092.25;5161169;27;19923;-90
2022/03/13 06:46:48;;;;;;;;;;;;;;;0.98;35.11;98088.13;5152641;27;20009;-90
2022/03/13 06:49:18;;;;;;;;;;;;;;;1.26;34.18;98099.75;5156568;27;19941;-89
2022/03/13 06:51:49;;;;;;;;;;;;;;;1.28;34.38;98092.28;5151967;27;19938;-91
2022/03/13 06:54:21;;;;;;;;;;;;;;;1.44;33.26;98094.13;5155158;27;19923;-90
2022/03/13 06:56:52;;;;;;;;;;;;;;;1.36;34.10;98099.88;5145887;27;19939;-92
2022/03/13 06:59:22;;;;;;;;;;;;;;;1.43;33.99;98111.22;5160928;27;19931;-91
2022/03/13 07:01:51;;;;;;;;;;;;;;;1.63;33.42;98099.16;5158037;27;20401;-90
2022/03/13 07:04:19;;;;;;;;;;;;;;;1.51;33.61;98107.31;5155466;27;19933;-90
2022/03/13 07:06:47;;;;;;;;;;;;;;;1.56;33.82;98100.16;5153460;27;19965;-90
2022/03/13 07:09:16;;;;;;;;;;;;;;;1.77;33.37;98108.44;5152819;27;19970;-91
2022/03/13 07:11:48;;;;;;;;;;;;;;;1.67;33.45;98106.44;5152513;27;19924;-90
2022/03/13 07:14:19;;;;;;;;;;;;;;;1.93;32.91;98112.13;5161663;27;20000;-88
2022/03/13 07:16:49;;;;;;;;;;;;;;;2.09;32.71;98112.03;5151438;27;19931;-91
2022/03/13 07:19:17;;;;;;;;;;;;;;;2.13;33.03;98114.19;5153570;27;20139;-89
2022/03/13 07:21:45;;;;;;;;;;;;;;;2.23;32.34;98109.75;5151329;27;19923;-87
2022/03/13 07:24:13;;;;;;;;;;;;;;;2.36;32.24;98111.25;5158468;27;20021;-86
2022/03/13 07:29:33;;;;;;;;;;;;;;;2.59;31.54;98097.50;5152842;27;20017;-83
2022/03/13 07:32:03;;;;;;;;;;;;;;;2.71;31.28;98102.69;5156517;27;19983;-81
2022/03/13 07:34:33;;;;;;;;;;;;;;;2.97;31.26;98100.22;5157266;27;20025;-87
2022/03/13 07:37:01;;;;;;;;;;;;;;;2.80;31.68;98098.50;5145631;27;19945;-92
2022/03/13 07:39:29;;;;;;;;;;;;;;;2.84;31.76;98102.28;5184307;27;19948;-84
2022/03/13 07:41:57;;;;;;;;;;;;;;;2.98;31.12;98097.28;5142734;27;19923;-91
2022/03/13 07:44:26;;;;;;;;;;;;;;;3.19;31.38;98100.91;5140762;27;19923;-88
2022/03/13 07:46:55;;;;;;;;;;;;;;;3.27;31.38;98102.31;5154839;27;20357;-80
2022/03/13 07:49:24;;;;;;;;;;;;;;;3.24;31.10;98102.81;5131781;27;20446;-88
2022/03/13 07:51:52;;;;;;;;;;;;;;;3.36;30.95;98096.22;5131643;27;19924;-84
2022/03/13 07:54:21;;;;;;;;;;;;;;;3.63;31.00;98103.34;5142395;27;19947;-82
2022/03/13 07:56:49;;;;;;;;;;;;;;;3.67;30.57;98097.19;5134871;27;19927;-89
2022/03/13 07:59:17;;;;;;;;;;;;;;;3.74;31.42;98096.13;5137581;27;19922;-91
2022/03/13 08:01:47;;;;;;;;;;;;;;;3.77;30.65;98101.75;5151875;27;20020;-90
2022/03/13 08:04:16;;;;;;;;;;;;;;;3.94;30.23;98099.69;5155719;27;19931;-92
2022/03/13 08:06:45;;;;;;;;;;;;;;;4.10;29.72;98095.19;5152624;27;19934;-84
2022/03/13 08:09:14;;;;;;;;;;;;;;;4.23;30.43;98095.75;5156759;27;19924;-92
2022/03/13 08:11:42;;;;;;;;;;;;;;;4.50;29.14;98084.75;5129776;27;19930;-82
2022/03/13 08:14:12;;;;;;;;;;;;;;;4.57;30.34;98088.00;5157012;27;19976;-89
2022/03/13 08:16:40;;;;;;;;;;;;;;;4.59;29.93;98086.66;5157078;27;20296;-88
2022/03/13 08:19:10;;;;;;;;;;;;;;;4.86;29.13;98083.72;5152032;27;19930;-92
2022/03/13 08:21:39;;;;;;;;;;;;;;;4.75;29.25;98083.97;5132895;27;20057;-75
2022/03/13 08:24:08;;;;;;;;;;;;;;;4.82;28.09;98089.91;5149633;27;19967;-76
2022/03/13 08:26:38;;;;;;;;;;;;;;;4.94;28.92;98095.81;5138312;27;19948;-85
2022/03/13 08:29:06;;;;;;;;;;;;;;;5.11;27.64;98092.81;5155839;27;19962;-78
2022/03/13 08:31:35;;;;;;;;;;;;;;;5.15;26.26;98089.31;5147226;27;19977;-74
2022/03/13 08:34:07;;;;;;;;;;;;;;;4.86;26.60;98091.78;5148501;27;19930;-77
2022/03/13 08:36:36;;;;;;;;;;;;;;;4.81;27.28;98090.97;5135075;27;19923;-75
2022/03/13 08:39:04;;;;;;;;;;;;;;;5.09;27.13;98097.69;5108576;27;19924;-81
2022/03/13 08:41:34;;;;;;;;;;;;;;;5.21;26.85;98090.91;5134662;27;19931;-74
2022/03/13 08:44:02;;;;;;;;;;;;;;;5.41;26.45;98089.28;5146727;27;19923;-74
2022/03/13 08:46:30;;;;;;;;;;;;;;;5.55;26.69;98084.13;5142373;27;19997;-74
2022/03/13 08:48:58;;;;;;;;;;;;;;;5.94;27.12;98089.69;5143450;27;19930;-76
2022/03/13 08:51:27;;;;;;;;;;;;;;;6.28;25.88;98081.66;5128500;27;19927;-77
2022/03/13 08:53:56;;;;;;;;;;;;;;;6.49;24.38;98077.75;5149020;27;19923;-78
2022/03/13 08:56:24;;;;;;;;;;;;;;;6.11;24.66;98073.13;5138396;27;19924;-82
2022/03/13 08:58:54;;;;;;;;;;;;;;;6.20;25.45;98074.97;5149641;27;19931;-81
2022/03/13 09:01:24;;;;;;;;;;;;;;;6.46;26.39;98075.63;5131326;27;19923;-90
2022/03/13 09:04:18;;;;;;;;;;;;;;;6.59;25.41;98071.47;5146532;27;20365;-85
2022/03/13 09:06:46;;;;;;;;;;;;;;;6.77;25.28;98068.13;5147053;27;19930;-83
2022/03/13 09:09:14;;;;;;;;;;;;;;;6.88;26.11;98070.72;5145666;27;20607;-86
2022/03/13 09:11:45;;;;;;;;;;;;;;;7.11;25.16;98069.16;5149432;27;20006;-84
2022/03/13 09:14:15;;;;;;;;;;;;;;;7.29;23.46;98063.84;5109319;27;20422;-78
2022/03/13 09:16:43;;;;;;;;;;;;;;;7.03;23.82;98063.31;5146485;27;19979;-80
2022/03/13 09:19:11;;;;;;;;;;;;;;;7.29;25.89;98065.72;5144979;27;20006;-80
2022/03/13 09:21:40;;;;;;;;;;;;;;;7.34;24.05;98063.78;5146223;27;19923;-81
2022/03/13 09:24:10;;;;;;;;;;;;;;;7.45;23.95;98060.97;5125258;27;19923;-78
2022/03/13 09:29:36;;;;;;;;;;;;;;;7.95;24.05;98061.47;5125784;27;19976;-81
2022/03/13 09:32:05;;;;;;;;;;;;;;;8.22;24.11;98067.06;5125684;27;19927;-79
2022/03/13 09:34:32;;;;;;;;;;;;;;;8.32;23.64;98076.94;5131520;27;19923;-81
2022/03/13 09:37:00;;;;;;;;;;;;;;;7.78;22.96;98072.78;5133038;27;19939;-78
2022/03/13 09:39:29;;;;;;;;;;;;;;;8.14;24.08;98065.81;5116207;27;19957;-77
2022/03/13 09:41:58;;;;;;;;;;;;;;;8.47;23.72;98078.66;5131309;27;19946;-78
2022/03/13 09:44:26;;;;;;;;;;;;;;;8.05;22.89;98064.06;5129309;27;20517;-80
2022/03/13 09:53:36;;;;;;;;;;;;;;;8.36;22.68;98075.28;5051518;28;20024;-79
2022/03/13 09:56:05;;;;;;;;;;;;;;;8.60;23.22;98069.78;5045919;28;19932;-77
2022/03/13 09:58:35;;;;;;;;;;;;;;;9.00;22.15;98060.22;5060521;28;19925;-74
2022/03/13 10:01:03;;;;;;;;;;;;;;;9.20;24.15;98059.03;5064573;28;19960;-74
2022/03/13 10:03:31;;;;;;;;;;;;;;;9.40;24.87;98072.22;5035221;28;19929;-73
2022/03/13 10:06:00;;;;;;;;;;;;;;;9.35;22.47;98061.47;5058726;28;20171;-74
2022/03/13 10:08:29;;;;;;;;;;;;;;;9.43;22.33;98062.72;5048791;28;20476;-74
2022/03/13 10:10:57;;;;;;;;;;;;;;;9.34;22.63;98068.00;5055076;28;20015;-73
2022/03/13 10:13:35;;;;;;;;;;;;;;;9.59;23.45;98066.75;5040286;28;19983;-74
2022/03/13 10:16:04;;;;;;;;;;;;;;;9.85;22.24;98058.88;5051719;28;19929;-75
2022/03/13 10:18:38;;;;;;;;;;;;;;;9.51;22.32;98053.06;5056217;28;19925;-76
2022/03/13 10:21:11;;;;;;;;;;;;;;;9.45;22.58;98047.72;5059773;28;21262;-76
2022/03/13 10:23:39;;;;;;;;;;;;;;;9.29;22.78;98051.84;5064297;27;20019;-76
2022/03/13 10:26:10;;;;;;;;;;;;;;;9.47;22.43;98046.63;5136903;27;20331;-78
2022/03/13 10:28:40;;;;;;;;;;;;;;;9.23;22.73;98039.47;5142489;27;19928;-76
2022/03/13 10:31:16;;;;;;;;;;;;;;;9.59;23.04;98038.81;5129428;27;20021;-75
2022/03/13 10:33:55;;;;;;;;;;;;;;;9.90;23.13;98041.69;5111533;27;19928;-79
2022/03/13 10:36:31;;;;;;;;;;;;;;;10.19;22.80;98039.44;5132090;27;20264;-78
2022/03/13 10:39:02;;;;;;;;;;;;;;;9.37;22.61;98034.84;5134915;27;19929;-78
2022/03/13 10:41:44;;;;;;;;;;;;;;;9.81;23.37;98041.59;5148658;27;19923;-77
2022/03/13 10:44:14;;;;;;;;;;;;;;;10.31;22.54;98038.13;5128772;27;20304;-74
2022/03/13 10:46:44;;;;;;;;;;;;;;;10.36;21.72;98033.38;5143764;27;20357;-77
2022/03/13 10:49:13;;;;;;;;;;;;;;;10.53;22.09;98040.06;5149213;27;19927;-76
2022/03/13 10:51:47;;;;;;;;;;;;;;;10.91;22.60;98032.34;5149445;27;19929;-75
2022/03/13 10:54:26;;;;;;;;;;;;;;;10.56;21.51;98031.31;5143237;27;19927;-78
2022/03/13 10:57:05;;;;;;;;;;;;;;;10.59;22.10;98023.31;5145526;27;19949;-85
2022/03/13 10:59:33;;;;;;;;;;;;;;;10.87;22.07;98015.88;5148372;27;20459;-84
2022/03/13 11:02:14;;;;;;;;;;;;;;;11.12;21.77;98016.31;5146999;27;19934;-82
2022/03/13 11:04:51;;;;;;;;;;;;;;;11.15;21.31;98012.97;5153087;27;19946;-86
2022/03/13 11:07:21;;;;;;;;;;;;;;;11.38;21.45;98011.00;5136417;27;19979;-82
2022/03/13 11:09:49;;;;;;;;;;;;;;;11.63;21.13;98009.50;5156065;27;19972;-81
2022/03/13 11:12:20;;;;;;;;;;;;;;;11.65;20.80;98002.59;5153191;27;19974;-83
2022/03/13 11:14:49;;;;;;;;;;;;;;;11.84;21.16;98002.38;5147741;27;20017;-85
2022/03/13 11:17:17;;;;;;;;;;;;;;;11.47;21.01;98009.13;5144785;27;20003;-82
2022/03/13 11:19:46;;;;;;;;;;;;;;;11.81;21.00;98008.41;5147863;27;19927;-82
2022/03/13 11:22:16;;;;;;;;;;;;;;;11.90;20.47;98005.75;5144427;27;19931;-82
2022/03/13 11:24:45;;;;;;;;;;;;;;;11.78;20.91;98006.34;5146161;27;19923;-82
2022/03/13 11:27:15;;;;;;;;;;;;;;;11.68;21.69;97998.47;5147151;27;19932;-85
2022/03/13 11:29:44;;;;;;;;;;;;;;;12.00;20.87;97992.63;5149988;27;19922;-85
2022/03/13 11:32:33;;;;;;;;;;;;;;;11.70;21.35;97988.84;5154021;27;19927;-81
2022/03/13 11:35:24;;;;;;;;;;;;;;;11.50;21.28;97990.25;5148440;27;19979;-86
2022/03/13 11:37:54;;;;;;;;;;;;;;;11.69;21.60;97983.72;5146141;27;20022;-86
2022/03/13 11:40:31;;;;;;;;;;;;;;;11.79;21.49;97978.00;5147731;27;19958;-84
2022/03/13 11:43:06;;;;;;;;;;;;;;;12.07;21.44;97976.63;5148567;27;19980;-82
2022/03/13 11:45:36;;;;;;;;;;;;;;;12.43;20.75;97974.72;5142324;27;19923;-85
2022/03/13 11:48:40;;;;;;;;;;;;;;;12.43;20.26;97974.72;5153053;27;19927;-84
2022/03/13 11:51:18;;;;;;;;;;;;;;;12.70;20.55;97963.44;5141673;27;19962;-83
2022/03/13 11:53:46;;;;;;;;;;;;;;;12.91;20.91;97960.84;5140313;27;19923;-81
2022/03/13 11:56:26;;;;;;;;;;;;;;;13.11;21.41;97953.88;5144487;27;19931;-81
2022/03/13 11:58:55;;;;;;;;;;;;;;;12.84;21.65;97952.38;5148846;27;20002;-79
2022/03/13 12:01:36;;;;;;;;;;;;;;;12.66;21.02;97948.06;5146931;27;19927;-84
2022/03/13 12:04:25;;;;;;;;;;;;;;;12.42;21.04;97945.88;5139312;27;19927;-82
2022/03/13 12:06:56;;;;;;;;;;;;;;;12.60;19.96;97947.44;5133314;27;20342;-82
2022/03/13 12:09:28;;;;;;;;;;;;;;;12.30;20.58;97941.88;5124172;27;19927;-85
2022/03/13 12:12:01;;;;;;;;;;;;;;;12.58;20.58;97936.88;5143162;27;19923;-85
2022/03/13 12:14:48;;;;;;;;;;;;;;;12.86;20.55;97933.75;5119571;27;19931;-83
2022/03/13 12:17:16;;;;;;;;;;;;;;;12.95;20.85;97929.06;5141856;27;20022;-85
2022/03/13 12:19:47;;;;;;;;;;;;;;;13.12;19.43;97925.47;5141935;27;19930;-85
2022/03/13 12:22:15;;;;;;;;;;;;;;;13.19;20.88;97927.69;5146316;27;20266;-86
2022/03/13 12:27:46;;;;;;;;;;;;;;;12.96;20.63;97919.75;5138474;27;19923;-85
2022/03/13 12:30:15;;;;;;;;;;;;;;;12.57;20.64;97916.19;5133036;27;19991;-85
2022/03/13 12:32:43;;;;;;;;;;;;;;;12.94;20.70;97919.25;5134832;27;19933;-83
2022/03/13 12:35:26;;;;;;;;;;;;;;;13.09;22.11;97916.00;5136468;27;19927;-82
2022/03/13 12:37:54;;;;;;;;;;;;;;;13.32;21.22;97908.41;5141645;27;19934;-83
2022/03/13 12:40:23;;;;;;;;;;;;;;;13.58;20.46;97902.81;5137803;27;19961;-84
2022/03/13 12:42:56;;;;;;;;;;;;;;;13.66;21.00;97900.34;5130877;27;20278;-84
2022/03/13 12:45:26;;;;;;;;;;;;;;;13.60;20.46;97895.06;5137208;27;19927;-85
2022/03/13 12:47:55;;;;;;;;;;;;;;;13.45;21.07;97903.81;5135623;27;19928;-80
2022/03/13 12:50:25;;;;;;;;;;;;;;;13.49;21.49;97898.53;5129583;27;19980;-81
2022/03/13 12:53:01;;;;;;;;;;;;;;;13.47;21.14;97890.63;5129758;27;20035;-82
2022/03/13 12:55:30;;;;;;;;;;;;;;;13.24;20.87;97887.41;5130769;27;19930;-86
2022/03/13 12:57:59;;;;;;;;;;;;;;;13.51;20.79;97886.13;5134256;27;19928;-82
2022/03/13 13:00:34;;;;;;;;;;;;;;;13.58;20.90;97886.44;5134080;27;20022;-81
2022/03/13 13:03:06;;;;;;;;;;;;;;;13.63;22.06;97885.41;5128659;27;20014;-81
2022/03/13 13:05:34;;;;;;;;;;;;;;;13.63;21.51;97891.69;5133488;27;20943;-77
2022/03/13 13:08:02;;;;;;;;;;;;;;;13.74;20.50;97883.09;5128639;27;19927;-78
2022/03/13 13:10:31;;;;;;;;;;;;;;;13.10;20.59;97878.63;5132358;27;19931;-90
2022/03/13 13:13:03;;;;;;;;;;;;;;;13.13;20.95;97874.44;5133059;27;20048;-81
2022/03/13 13:15:34;;;;;;;;;;;;;;;13.16;21.04;97876.53;5131590;27;19945;-75
2022/03/13 13:18:02;;;;;;;;;;;;;;;13.32;20.56;97877.59;5139531;27;19931;-78
2022/03/13 13:20:30;;;;;;;;;;;;;;;13.07;20.73;97871.09;5133723;27;19935;-78
2022/03/13 13:23:11;;;;;;;;;;;;;;;13.09;20.86;97871.56;5132971;27;20491;-82
2022/03/13 13:25:39;;;;;;;;;;;;;;;13.20;21.74;97872.00;5134423;27;19941;-80
2022/03/13 13:28:11;;;;;;;;;;;;;;;13.40;20.93;97860.34;5145283;27;20022;-75
2022/03/13 13:30:39;;;;;;;;;;;;;;;13.70;20.48;97863.84;5158128;27;19945;-78
2022/03/13 13:33:08;;;;;;;;;;;;;;;13.77;20.73;97866.84;5153485;27;19967;-78
2022/03/13 13:35:36;;;;;;;;;;;;;;;13.70;20.84;97861.13;5162856;27;20603;-78
2022/03/13 13:38:05;;;;;;;;;;;;;;;13.77;21.23;97864.13;5139683;27;19962;-77